Terminal Aerodrome Forecast
Issued by NWS

Home | Current Version | Previous Version | Text Only | Print | Product List | Glossary On
Versions: 1 2 3 4 5 6 7 8 9 10 11 12 13 14 15
285
FTUS44 KLIX 211736
TAFMSY
TAF
KMSY 211736Z 2118/2218 05007KT P6SM VCTS SCT040CB
     FM220200 19007KT P6SM SCT150
     FM220500 VRB03KT P6SM SCT200
     FM221400 VRB03KT P6SM VCSH SCT035=

USA.gov is the U.S. government's official web portal to all federal, state and local government web resources and services.